sensor_id;sensor_type;location;lat;lon;timestamp;P1;durP1;ratioP1;P2;durP2;ratioP2
10687;SDS011;5392;42.688;23.298;2022-11-20T00:01:22;0.70;;;0.20;;
10687;SDS011;5392;42.688;23.298;2022-11-20T00:03:54;0.50;;;0.15;;
10687;SDS011;5392;42.688;23.298;2022-11-20T00:06:22;0.30;;;0.30;;
10687;SDS011;5392;42.688;23.298;2022-11-20T00:08:49;0.50;;;0.10;;
10687;SDS011;5392;42.688;23.298;2022-11-20T00:11:20;0.35;;;0.10;;
10687;SDS011;5392;42.688;23.298;2022-11-20T00:13:50;0.30;;;0.10;;
10687;SDS011;5392;42.688;23.298;2022-11-20T00:16:19;2.30;;;0.13;;
10687;SDS011;5392;42.688;23.298;2022-11-20T00:18:48;2.25;;;0.10;;
10687;SDS011;5392;42.688;23.298;2022-11-20T00:21:16;0.20;;;0.10;;
10687;SDS011;5392;42.688;23.298;2022-11-20T00:23:51;0.20;;;0.10;;
10687;SDS011;5392;42.688;23.298;2022-11-20T00:26:20;0.93;;;0.10;;
10687;SDS011;5392;42.688;23.298;2022-11-20T00:28:50;2.25;;;0.10;;
10687;SDS011;5392;42.688;23.298;2022-11-20T00:31:18;2.30;;;0.10;;
10687;SDS011;5392;42.688;23.298;2022-11-20T00:33:45;1.20;;;0.10;;
10687;SDS011;5392;42.688;23.298;2022-11-20T00:36:16;0.77;;;0.10;;
10687;SDS011;5392;42.688;23.298;2022-11-20T00:38:44;2.67;;;0.10;;
10687;SDS011;5392;42.688;23.298;2022-11-20T00:41:15;0.82;;;0.10;;
10687;SDS011;5392;42.688;23.298;2022-11-20T00:43:42;0.82;;;0.13;;
10687;SDS011;5392;42.688;23.298;2022-11-20T00:46:10;1.20;;;0.10;;
10687;SDS011;5392;42.688;23.298;2022-11-20T00:48:39;0.75;;;0.10;;
10687;SDS011;5392;42.688;23.298;2022-11-20T00:51:06;0.93;;;0.10;;
10687;SDS011;5392;42.688;23.298;2022-11-20T00:53:33;1.27;;;0.10;;
10687;SDS011;5392;42.688;23.298;2022-11-20T00:56:04;0.68;;;0.20;;
10687;SDS011;5392;42.688;23.298;2022-11-20T00:58:42;0.57;;;0.10;;
10687;SDS011;5392;42.688;23.298;2022-11-20T01:01:12;1.05;;;0.10;;
10687;SDS011;5392;42.688;23.298;2022-11-20T01:03:44;10.43;;;0.30;;
10687;SDS011;5392;42.688;23.298;2022-11-20T01:06:16;1.60;;;0.20;;
10687;SDS011;5392;42.688;23.298;2022-11-20T01:08:48;0.98;;;0.10;;
10687;SDS011;5392;42.688;23.298;2022-11-20T01:11:19;0.20;;;0.10;;
10687;SDS011;5392;42.688;23.298;2022-11-20T01:13:48;0.40;;;0.10;;
10687;SDS011;5392;42.688;23.298;2022-11-20T01:16:20;0.50;;;0.10;;
10687;SDS011;5392;42.688;23.298;2022-11-20T01:18:59;1.48;;;0.20;;
10687;SDS011;5392;42.688;23.298;2022-11-20T01:21:28;0.75;;;0.10;;
10687;SDS011;5392;42.688;23.298;2022-11-20T01:23:56;0.50;;;0.10;;
10687;SDS011;5392;42.688;23.298;2022-11-20T01:26:25;0.35;;;0.10;;
10687;SDS011;5392;42.688;23.298;2022-11-20T01:28:54;0.20;;;0.10;;
10687;SDS011;5392;42.688;23.298;2022-11-20T01:31:22;0.25;;;0.10;;
10687;SDS011;5392;42.688;23.298;2022-11-20T01:33:57;0.47;;;0.10;;
10687;SDS011;5392;42.688;23.298;2022-11-20T01:36:26;1.42;;;0.10;;
10687;SDS011;5392;42.688;23.298;2022-11-20T01:38:56;1.45;;;0.10;;
10687;SDS011;5392;42.688;23.298;2022-11-20T01:41:25;0.40;;;0.10;;
10687;SDS011;5392;42.688;23.298;2022-11-20T01:44:13;0.30;;;0.00;;
10687;SDS011;5392;42.688;23.298;2022-11-20T01:52:20;0.85;;;0.10;;
10687;SDS011;5392;42.688;23.298;2022-11-20T01:55:01;1.55;;;0.10;;
10687;SDS011;5392;42.688;23.298;2022-11-20T01:57:33;2.83;;;0.10;;
10687;SDS011;5392;42.688;23.298;2022-11-20T02:00:06;1.05;;;0.10;;
10687;SDS011;5392;42.688;23.298;2022-11-20T02:02:36;1.55;;;0.10;;
10687;SDS011;5392;42.688;23.298;2022-11-20T02:05:07;1.02;;;0.10;;
10687;SDS011;5392;42.688;23.298;2022-11-20T02:07:43;0.20;;;0.10;;
10687;SDS011;5392;42.688;23.298;2022-11-20T02:10:11;0.20;;;0.10;;
10687;SDS011;5392;42.688;23.298;2022-11-20T02:12:38;0.10;;;0.08;;
10687;SDS011;5392;42.688;23.298;2022-11-20T02:15:23;0.90;;;0.10;;
10687;SDS011;5392;42.688;23.298;2022-11-20T02:17:55;0.63;;;0.00;;
10687;SDS011;5392;42.688;23.298;2022-11-20T02:20:22;1.35;;;0.10;;
10687;SDS011;5392;42.688;23.298;2022-11-20T02:22:56;0.10;;;0.10;;
10687;SDS011;5392;42.688;23.298;2022-11-20T02:25:29;1.08;;;0.10;;
10687;SDS011;5392;42.688;23.298;2022-11-20T02:27:58;0.40;;;0.10;;
10687;SDS011;5392;42.688;23.298;2022-11-20T02:30:25;0.17;;;0.10;;
10687;SDS011;5392;42.688;23.298;2022-11-20T02:32:51;0.52;;;0.10;;
10687;SDS011;5392;42.688;23.298;2022-11-20T02:37:47;0.57;;;0.10;;
10687;SDS011;5392;42.688;23.298;2022-11-20T02:40:16;0.00;;;0.00;;
10687;SDS011;5392;42.688;23.298;2022-11-20T02:42:42;0.40;;;0.10;;
10687;SDS011;5392;42.688;23.298;2022-11-20T02:45:09;0.10;;;0.10;;
10687;SDS011;5392;42.688;23.298;2022-11-20T02:47:36;0.20;;;0.10;;
10687;SDS011;5392;42.688;23.298;2022-11-20T02:50:04;0.10;;;0.00;;
10687;SDS011;5392;42.688;23.298;2022-11-20T02:52:31;0.85;;;0.10;;
10687;SDS011;5392;42.688;23.298;2022-11-20T02:54:58;0.65;;;0.10;;
10687;SDS011;5392;42.688;23.298;2022-11-20T02:57:24;2.30;;;0.20;;
10687;SDS011;5392;42.688;23.298;2022-11-20T02:59:51;0.80;;;0.10;;
10687;SDS011;5392;42.688;23.298;2022-11-20T03:02:18;0.63;;;0.10;;
10687;SDS011;5392;42.688;23.298;2022-11-20T03:04:44;1.00;;;0.13;;
10687;SDS011;5392;42.688;23.298;2022-11-20T03:07:11;0.88;;;0.10;;
10687;SDS011;5392;42.688;23.298;2022-11-20T03:09:37;0.45;;;0.10;;
10687;SDS011;5392;42.688;23.298;2022-11-20T03:12:04;1.27;;;0.20;;
10687;SDS011;5392;42.688;23.298;2022-11-20T03:14:31;0.57;;;0.10;;
10687;SDS011;5392;42.688;23.298;2022-11-20T03:16:58;1.00;;;0.20;;
10687;SDS011;5392;42.688;23.298;2022-11-20T03:19:25;0.30;;;0.10;;
10687;SDS011;5392;42.688;23.298;2022-11-20T03:21:51;0.77;;;0.20;;
10687;SDS011;5392;42.688;23.298;2022-11-20T03:24:18;2.38;;;0.10;;
10687;SDS011;5392;42.688;23.298;2022-11-20T03:26:45;1.92;;;0.10;;
10687;SDS011;5392;42.688;23.298;2022-11-20T03:29:12;1.27;;;0.17;;
10687;SDS011;5392;42.688;23.298;2022-11-20T03:31:39;1.13;;;0.10;;
10687;SDS011;5392;42.688;23.298;2022-11-20T03:34:07;2.25;;;0.20;;
10687;SDS011;5392;42.688;23.298;2022-11-20T03:36:37;0.88;;;0.10;;
10687;SDS011;5392;42.688;23.298;2022-11-20T03:39:04;0.15;;;0.10;;
10687;SDS011;5392;42.688;23.298;2022-11-20T03:41:35;1.10;;;0.10;;
10687;SDS011;5392;42.688;23.298;2022-11-20T03:44:04;2.17;;;0.10;;
10687;SDS011;5392;42.688;23.298;2022-11-20T03:46:32;0.82;;;0.10;;
10687;SDS011;5392;42.688;23.298;2022-11-20T03:48:59;0.63;;;0.10;;
10687;SDS011;5392;42.688;23.298;2022-11-20T03:51:26;0.65;;;0.10;;
10687;SDS011;5392;42.688;23.298;2022-11-20T03:53:56;0.85;;;0.10;;
10687;SDS011;5392;42.688;23.298;2022-11-20T03:56:28;0.73;;;0.10;;
10687;SDS011;5392;42.688;23.298;2022-11-20T03:58:57;0.85;;;0.10;;
10687;SDS011;5392;42.688;23.298;2022-11-20T04:01:25;0.75;;;0.10;;
10687;SDS011;5392;42.688;23.298;2022-11-20T04:03:54;0.20;;;0.10;;
10687;SDS011;5392;42.688;23.298;2022-11-20T04:06:26;3.13;;;0.10;;
10687;SDS011;5392;42.688;23.298;2022-11-20T04:08:59;1.20;;;0.13;;
10687;SDS011;5392;42.688;23.298;2022-11-20T04:11:27;4.10;;;0.20;;
10687;SDS011;5392;42.688;23.298;2022-11-20T04:13:56;0.10;;;0.10;;
10687;SDS011;5392;42.688;23.298;2022-11-20T04:16:25;1.27;;;0.10;;
10687;SDS011;5392;42.688;23.298;2022-11-20T04:18:53;1.50;;;0.10;;
10687;SDS011;5392;42.688;23.298;2022-11-20T04:21:20;0.10;;;0.10;;
10687;SDS011;5392;42.688;23.298;2022-11-20T04:23:47;0.10;;;0.10;;
10687;SDS011;5392;42.688;23.298;2022-11-20T04:26:15;1.75;;;0.05;;
10687;SDS011;5392;42.688;23.298;2022-11-20T04:28:41;3.17;;;0.10;;
10687;SDS011;5392;42.688;23.298;2022-11-20T04:31:12;0.52;;;0.10;;
10687;SDS011;5392;42.688;23.298;2022-11-20T04:33:59;1.80;;;0.10;;
10687;SDS011;5392;42.688;23.298;2022-11-20T04:36:30;0.20;;;0.10;;
10687;SDS011;5392;42.688;23.298;2022-11-20T04:38:59;0.10;;;0.10;;
10687;SDS011;5392;42.688;23.298;2022-11-20T04:41:31;0.30;;;0.10;;
10687;SDS011;5392;42.688;23.298;2022-11-20T04:44:00;1.42;;;0.57;;
10687;SDS011;5392;42.688;23.298;2022-11-20T04:46:32;0.47;;;0.10;;
10687;SDS011;5392;42.688;23.298;2022-11-20T04:49:03;1.60;;;0.10;;
10687;SDS011;5392;42.688;23.298;2022-11-20T04:51:30;0.20;;;0.10;;
10687;SDS011;5392;42.688;23.298;2022-11-20T04:53:57;0.10;;;0.08;;
10687;SDS011;5392;42.688;23.298;2022-11-20T04:56:24;1.20;;;0.10;;
10687;SDS011;5392;42.688;23.298;2022-11-20T04:58:51;0.88;;;0.10;;
10687;SDS011;5392;42.688;23.298;2022-11-20T05:01:21;0.10;;;0.10;;
10687;SDS011;5392;42.688;23.298;2022-11-20T05:03:50;0.98;;;0.10;;
10687;SDS011;5392;42.688;23.298;2022-11-20T05:06:18;0.63;;;0.10;;
10687;SDS011;5392;42.688;23.298;2022-11-20T05:08:46;0.15;;;0.10;;
10687;SDS011;5392;42.688;23.298;2022-11-20T05:11:14;0.40;;;0.10;;
10687;SDS011;5392;42.688;23.298;2022-11-20T05:13:43;0.40;;;0.10;;
10687;SDS011;5392;42.688;23.298;2022-11-20T05:16:13;0.45;;;0.10;;
10687;SDS011;5392;42.688;23.298;2022-11-20T05:18:47;1.30;;;0.10;;
10687;SDS011;5392;42.688;23.298;2022-11-20T05:21:15;1.30;;;0.10;;
10687;SDS011;5392;42.688;23.298;2022-11-20T05:23:42;0.80;;;0.00;;
10687;SDS011;5392;42.688;23.298;2022-11-20T05:26:20;0.17;;;0.10;;
10687;SDS011;5392;42.688;23.298;2022-11-20T05:28:49;0.50;;;0.00;;
10687;SDS011;5392;42.688;23.298;2022-11-20T05:31:18;2.10;;;0.20;;
10687;SDS011;5392;42.688;23.298;2022-11-20T05:33:53;2.45;;;0.10;;
10687;SDS011;5392;42.688;23.298;2022-11-20T05:36:19;0.50;;;0.10;;
10687;SDS011;5392;42.688;23.298;2022-11-20T05:38:46;1.83;;;0.10;;
10687;SDS011;5392;42.688;23.298;2022-11-20T05:41:17;0.82;;;0.17;;
10687;SDS011;5392;42.688;23.298;2022-11-20T05:43:45;1.52;;;0.00;;
10687;SDS011;5392;42.688;23.298;2022-11-20T05:46:14;0.93;;;0.10;;
10687;SDS011;5392;42.688;23.298;2022-11-20T05:48:42;0.20;;;0.13;;
10687;SDS011;5392;42.688;23.298;2022-11-20T05:51:10;0.20;;;0.10;;
10687;SDS011;5392;42.688;23.298;2022-11-20T05:53:39;1.98;;;0.10;;
10687;SDS011;5392;42.688;23.298;2022-11-20T05:56:14;0.60;;;0.10;;
10687;SDS011;5392;42.688;23.298;2022-11-20T05:58:43;0.65;;;0.15;;
10687;SDS011;5392;42.688;23.298;2022-11-20T06:01:14;1.80;;;0.13;;
10687;SDS011;5392;42.688;23.298;2022-11-20T06:03:42;0.17;;;0.10;;
10687;SDS011;5392;42.688;23.298;2022-11-20T06:06:12;0.95;;;0.10;;
10687;SDS011;5392;42.688;23.298;2022-11-20T06:08:40;0.38;;;0.10;;
10687;SDS011;5392;42.688;23.298;2022-11-20T06:11:08;1.00;;;0.10;;
10687;SDS011;5392;42.688;23.298;2022-11-20T06:13:35;0.30;;;0.10;;
10687;SDS011;5392;42.688;23.298;2022-11-20T06:16:07;0.17;;;0.10;;
10687;SDS011;5392;42.688;23.298;2022-11-20T06:18:35;0.98;;;0.13;;
10687;SDS011;5392;42.688;23.298;2022-11-20T06:21:03;0.93;;;0.10;;
10687;SDS011;5392;42.688;23.298;2022-11-20T06:23:38;0.50;;;0.10;;
10687;SDS011;5392;42.688;23.298;2022-11-20T06:26:06;1.27;;;0.10;;
10687;SDS011;5392;42.688;23.298;2022-11-20T06:28:38;1.85;;;0.20;;
10687;SDS011;5392;42.688;23.298;2022-11-20T06:31:05;0.65;;;0.20;;
10687;SDS011;5392;42.688;23.298;2022-11-20T06:33:33;1.75;;;0.20;;
10687;SDS011;5392;42.688;23.298;2022-11-20T06:36:00;2.92;;;0.20;;
10687;SDS011;5392;42.688;23.298;2022-11-20T06:38:32;2.05;;;0.20;;
10687;SDS011;5392;42.688;23.298;2022-11-20T06:40:59;2.05;;;0.20;;
10687;SDS011;5392;42.688;23.298;2022-11-20T06:43:25;0.95;;;0.20;;
10687;SDS011;5392;42.688;23.298;2022-11-20T06:45:55;2.17;;;0.20;;
10687;SDS011;5392;42.688;23.298;2022-11-20T06:48:23;2.70;;;0.10;;
10687;SDS011;5392;42.688;23.298;2022-11-20T06:50:50;0.30;;;0.10;;
10687;SDS011;5392;42.688;23.298;2022-11-20T06:53:17;2.03;;;0.20;;
10687;SDS011;5392;42.688;23.298;2022-11-20T06:55:47;1.05;;;0.10;;
10687;SDS011;5392;42.688;23.298;2022-11-20T06:58:15;0.65;;;0.10;;
10687;SDS011;5392;42.688;23.298;2022-11-20T07:00:42;1.00;;;0.10;;
10687;SDS011;5392;42.688;23.298;2022-11-20T07:03:10;5.32;;;0.20;;
10687;SDS011;5392;42.688;23.298;2022-11-20T07:05:38;0.93;;;0.10;;
10687;SDS011;5392;42.688;23.298;2022-11-20T07:08:05;0.20;;;0.10;;
10687;SDS011;5392;42.688;23.298;2022-11-20T07:10:32;1.73;;;0.15;;
10687;SDS011;5392;42.688;23.298;2022-11-20T07:12:59;0.77;;;0.10;;
10687;SDS011;5392;42.688;23.298;2022-11-20T07:15:26;0.52;;;0.10;;
10687;SDS011;5392;42.688;23.298;2022-11-20T07:17:53;2.63;;;0.20;;
10687;SDS011;5392;42.688;23.298;2022-11-20T07:20:19;0.82;;;0.10;;
10687;SDS011;5392;42.688;23.298;2022-11-20T07:22:46;0.30;;;0.15;;
10687;SDS011;5392;42.688;23.298;2022-11-20T07:25:13;0.52;;;0.20;;
10687;SDS011;5392;42.688;23.298;2022-11-20T07:27:39;2.47;;;0.20;;
10687;SDS011;5392;42.688;23.298;2022-11-20T07:30:06;1.05;;;0.20;;
10687;SDS011;5392;42.688;23.298;2022-11-20T07:32:33;0.30;;;0.10;;
10687;SDS011;5392;42.688;23.298;2022-11-20T07:34:59;0.20;;;0.10;;
10687;SDS011;5392;42.688;23.298;2022-11-20T07:37:26;0.90;;;0.10;;
10687;SDS011;5392;42.688;23.298;2022-11-20T07:39:53;1.23;;;0.10;;
10687;SDS011;5392;42.688;23.298;2022-11-20T07:42:19;2.92;;;0.20;;
10687;SDS011;5392;42.688;23.298;2022-11-20T07:44:46;2.95;;;0.10;;
10687;SDS011;5392;42.688;23.298;2022-11-20T07:47:12;2.80;;;0.20;;
10687;SDS011;5392;42.688;23.298;2022-11-20T07:49:39;2.97;;;0.30;;
10687;SDS011;5392;42.688;23.298;2022-11-20T07:52:06;0.30;;;0.20;;
10687;SDS011;5392;42.688;23.298;2022-11-20T07:54:32;2.47;;;0.28;;
10687;SDS011;5392;42.688;23.298;2022-11-20T07:56:59;1.42;;;0.20;;
10687;SDS011;5392;42.688;23.298;2022-11-20T07:59:25;0.95;;;0.20;;
10687;SDS011;5392;42.688;23.298;2022-11-20T08:01:52;1.75;;;0.30;;
10687;SDS011;5392;42.688;23.298;2022-11-20T08:04:19;0.80;;;0.30;;
10687;SDS011;5392;42.688;23.298;2022-11-20T08:06:45;2.58;;;0.20;;
10687;SDS011;5392;42.688;23.298;2022-11-20T08:09:12;2.45;;;0.30;;
10687;SDS011;5392;42.688;23.298;2022-11-20T08:11:39;2.08;;;0.30;;
10687;SDS011;5392;42.688;23.298;2022-11-20T08:14:24;1.90;;;0.30;;
10687;SDS011;5392;42.688;23.298;2022-11-20T08:16:51;2.05;;;0.30;;
10687;SDS011;5392;42.688;23.298;2022-11-20T08:19:17;0.88;;;0.50;;
10687;SDS011;5392;42.688;23.298;2022-11-20T08:21:45;1.77;;;0.40;;
10687;SDS011;5392;42.688;23.298;2022-11-20T08:24:12;0.88;;;0.50;;
10687;SDS011;5392;42.688;23.298;2022-11-20T08:26:39;1.95;;;0.40;;
10687;SDS011;5392;42.688;23.298;2022-11-20T08:29:06;1.38;;;0.30;;
10687;SDS011;5392;42.688;23.298;2022-11-20T08:31:35;2.40;;;0.30;;
10687;SDS011;5392;42.688;23.298;2022-11-20T08:34:02;2.28;;;0.50;;
10687;SDS011;5392;42.688;23.298;2022-11-20T08:36:34;2.42;;;0.70;;
10687;SDS011;5392;42.688;23.298;2022-11-20T08:39:01;4.95;;;0.30;;
10687;SDS011;5392;42.688;23.298;2022-11-20T08:41:28;4.35;;;0.30;;
10687;SDS011;5392;42.688;23.298;2022-11-20T08:43:59;3.85;;;0.20;;
10687;SDS011;5392;42.688;23.298;2022-11-20T08:46:31;4.85;;;0.30;;
10687;SDS011;5392;42.688;23.298;2022-11-20T08:49:11;3.22;;;0.30;;
10687;SDS011;5392;42.688;23.298;2022-11-20T08:51:40;3.42;;;0.70;;
10687;SDS011;5392;42.688;23.298;2022-11-20T08:54:08;3.13;;;0.30;;
10687;SDS011;5392;42.688;23.298;2022-11-20T08:56:35;4.68;;;0.40;;
10687;SDS011;5392;42.688;23.298;2022-11-20T08:59:02;3.28;;;0.40;;
10687;SDS011;5392;42.688;23.298;2022-11-20T09:01:48;2.03;;;0.47;;
10687;SDS011;5392;42.688;23.298;2022-11-20T09:04:16;4.80;;;0.60;;
10687;SDS011;5392;42.688;23.298;2022-11-20T09:06:43;7.43;;;0.63;;
10687;SDS011;5392;42.688;23.298;2022-11-20T09:09:09;2.58;;;0.50;;
10687;SDS011;5392;42.688;23.298;2022-11-20T09:11:36;4.20;;;0.63;;
10687;SDS011;5392;42.688;23.298;2022-11-20T09:14:02;4.32;;;0.65;;
10687;SDS011;5392;42.688;23.298;2022-11-20T09:16:30;3.17;;;0.47;;
10687;SDS011;5392;42.688;23.298;2022-11-20T09:18:57;6.18;;;0.90;;
10687;SDS011;5392;42.688;23.298;2022-11-20T09:21:43;2.78;;;0.60;;
10687;SDS011;5392;42.688;23.298;2022-11-20T09:24:10;9.23;;;0.88;;
10687;SDS011;5392;42.688;23.298;2022-11-20T09:26:37;3.95;;;0.40;;
10687;SDS011;5392;42.688;23.298;2022-11-20T09:29:03;2.08;;;0.40;;
10687;SDS011;5392;42.688;23.298;2022-11-20T09:31:30;1.38;;;0.38;;
10687;SDS011;5392;42.688;23.298;2022-11-20T09:33:57;1.35;;;0.30;;
10687;SDS011;5392;42.688;23.298;2022-11-20T09:36:23;3.15;;;0.20;;
10687;SDS011;5392;42.688;23.298;2022-11-20T09:38:50;1.30;;;0.22;;
10687;SDS011;5392;42.688;23.298;2022-11-20T09:47:31;1.95;;;0.22;;
10687;SDS011;5392;42.688;23.298;2022-11-20T09:55:39;1.05;;;0.30;;
10687;SDS011;5392;42.688;23.298;2022-11-20T09:58:07;0.40;;;0.20;;
10687;SDS011;5392;42.688;23.298;2022-11-20T10:01:00;2.38;;;0.38;;
10687;SDS011;5392;42.688;23.298;2022-11-20T10:03:40;0.43;;;0.40;;
10687;SDS011;5392;42.688;23.298;2022-11-20T10:06:11;3.28;;;0.57;;
10687;SDS011;5392;42.688;23.298;2022-11-20T10:08:43;3.20;;;0.60;;
10687;SDS011;5392;42.688;23.298;2022-11-20T10:11:20;1.95;;;0.50;;
10687;SDS011;5392;42.688;23.298;2022-11-20T10:31:12;2.30;;;0.60;;
10687;SDS011;5392;42.688;23.298;2022-11-20T10:33:53;3.90;;;0.60;;
10687;SDS011;5392;42.688;23.298;2022-11-20T10:36:44;2.53;;;0.45;;
10687;SDS011;5392;42.688;23.298;2022-11-20T10:39:24;3.30;;;0.45;;
10687;SDS011;5392;42.688;23.298;2022-11-20T10:41:59;3.30;;;1.00;;
10687;SDS011;5392;42.688;23.298;2022-11-20T10:44:27;3.53;;;0.95;;
10687;SDS011;5392;42.688;23.298;2022-11-20T10:47:20;5.80;;;0.82;;
10687;SDS011;5392;42.688;23.298;2022-11-20T10:49:51;8.85;;;1.02;;
10687;SDS011;5392;42.688;23.298;2022-11-20T10:58:19;9.65;;;1.55;;
10687;SDS011;5392;42.688;23.298;2022-11-20T11:01:04;10.13;;;1.00;;
10687;SDS011;5392;42.688;23.298;2022-11-20T11:03:32;8.70;;;0.77;;
10687;SDS011;5392;42.688;23.298;2022-11-20T11:06:10;4.00;;;0.73;;
10687;SDS011;5392;42.688;23.298;2022-11-20T11:08:43;3.60;;;0.40;;
10687;SDS011;5392;42.688;23.298;2022-11-20T11:11:18;3.97;;;0.40;;
10687;SDS011;5392;42.688;23.298;2022-11-20T11:13:48;3.13;;;0.30;;
10687;SDS011;5392;42.688;23.298;2022-11-20T11:16:18;3.28;;;0.32;;
10687;SDS011;5392;42.688;23.298;2022-11-20T11:18:50;3.72;;;0.50;;
10687;SDS011;5392;42.688;23.298;2022-11-20T11:21:21;1.00;;;0.20;;
10687;SDS011;5392;42.688;23.298;2022-11-20T11:23:59;1.00;;;0.20;;
10687;SDS011;5392;42.688;23.298;2022-11-20T11:26:55;1.15;;;0.30;;
10687;SDS011;5392;42.688;23.298;2022-11-20T11:29:30;1.58;;;0.30;;
10687;SDS011;5392;42.688;23.298;2022-11-20T11:34:39;1.65;;;0.20;;
10687;SDS011;5392;42.688;23.298;2022-11-20T11:37:14;1.27;;;0.10;;
10687;SDS011;5392;42.688;23.298;2022-11-20T11:39:44;2.78;;;0.20;;
10687;SDS011;5392;42.688;23.298;2022-11-20T11:42:29;7.45;;;0.60;;
10687;SDS011;5392;42.688;23.298;2022-11-20T11:44:57;4.13;;;0.70;;
10687;SDS011;5392;42.688;23.298;2022-11-20T11:47:33;1.63;;;0.20;;
10687;SDS011;5392;42.688;23.298;2022-11-20T11:52:41;0.52;;;0.20;;
10687;SDS011;5392;42.688;23.298;2022-11-20T11:58:04;1.65;;;0.20;;
10687;SDS011;5392;42.688;23.298;2022-11-20T12:00:39;2.55;;;0.20;;
10687;SDS011;5392;42.688;23.298;2022-11-20T12:03:47;1.45;;;0.30;;
10687;SDS011;5392;42.688;23.298;2022-11-20T12:06:16;1.80;;;0.28;;
10687;SDS011;5392;42.688;23.298;2022-11-20T12:08:44;2.75;;;0.30;;
10687;SDS011;5392;42.688;23.298;2022-11-20T12:11:35;2.42;;;0.35;;
10687;SDS011;5392;42.688;23.298;2022-11-20T12:14:13;0.82;;;0.20;;
10687;SDS011;5392;42.688;23.298;2022-11-20T12:16:50;5.72;;;0.40;;
10687;SDS011;5392;42.688;23.298;2022-11-20T12:19:19;1.33;;;0.20;;
10687;SDS011;5392;42.688;23.298;2022-11-20T12:30:00;3.53;;;0.20;;
10687;SDS011;5392;42.688;23.298;2022-11-20T12:32:41;1.65;;;0.20;;
10687;SDS011;5392;42.688;23.298;2022-11-20T12:47:34;0.75;;;0.17;;
10687;SDS011;5392;42.688;23.298;2022-11-20T12:50:11;2.25;;;0.30;;
10687;SDS011;5392;42.688;23.298;2022-11-20T12:52:46;2.25;;;0.90;;
10687;SDS011;5392;42.688;23.298;2022-11-20T12:55:21;1.05;;;0.15;;
10687;SDS011;5392;42.688;23.298;2022-11-20T12:57:59;0.82;;;0.28;;
10687;SDS011;5392;42.688;23.298;2022-11-20T13:00:32;1.08;;;0.30;;
10687;SDS011;5392;42.688;23.298;2022-11-20T13:06:15;2.58;;;1.35;;
10687;SDS011;5392;42.688;23.298;2022-11-20T13:08:53;1.58;;;0.65;;
10687;SDS011;5392;42.688;23.298;2022-11-20T13:11:37;4.05;;;0.60;;
10687;SDS011;5392;42.688;23.298;2022-11-20T13:17:14;1.33;;;0.30;;
10687;SDS011;5392;42.688;23.298;2022-11-20T13:19:55;1.52;;;0.50;;
10687;SDS011;5392;42.688;23.298;2022-11-20T13:22:28;5.25;;;1.08;;
10687;SDS011;5392;42.688;23.298;2022-11-20T13:25:24;3.20;;;0.60;;
10687;SDS011;5392;42.688;23.298;2022-11-20T13:27:56;12.05;;;7.45;;
10687;SDS011;5392;42.688;23.298;2022-11-20T13:30:28;17.08;;;11.93;;
10687;SDS011;5392;42.688;23.298;2022-11-20T13:38:48;8.25;;;6.78;;
10687;SDS011;5392;42.688;23.298;2022-11-20T13:41:30;3.28;;;1.45;;
10687;SDS011;5392;42.688;23.298;2022-11-20T13:44:06;3.88;;;0.93;;
10687;SDS011;5392;42.688;23.298;2022-11-20T13:49:18;1.42;;;0.60;;
10687;SDS011;5392;42.688;23.298;2022-11-20T14:00:55;4.28;;;1.48;;
10687;SDS011;5392;42.688;23.298;2022-11-20T14:03:25;2.97;;;1.20;;
10687;SDS011;5392;42.688;23.298;2022-11-20T14:06:26;2.55;;;1.60;;
10687;SDS011;5392;42.688;23.298;2022-11-20T14:08:58;5.63;;;2.67;;
10687;SDS011;5392;42.688;23.298;2022-11-20T14:11:29;3.35;;;1.73;;
10687;SDS011;5392;42.688;23.298;2022-11-20T14:14:01;3.83;;;2.03;;
10687;SDS011;5392;42.688;23.298;2022-11-20T14:16:40;4.65;;;1.60;;
10687;SDS011;5392;42.688;23.298;2022-11-20T14:21:49;3.88;;;1.00;;
10687;SDS011;5392;42.688;23.298;2022-11-20T14:24:19;4.90;;;1.92;;
10687;SDS011;5392;42.688;23.298;2022-11-20T14:26:48;2.88;;;1.05;;
10687;SDS011;5392;42.688;23.298;2022-11-20T14:29:17;6.30;;;1.75;;
10687;SDS011;5392;42.688;23.298;2022-11-20T14:31:53;3.65;;;2.00;;
10687;SDS011;5392;42.688;23.298;2022-11-20T14:34:23;5.47;;;2.35;;
10687;SDS011;5392;42.688;23.298;2022-11-20T14:36:58;3.85;;;1.88;;
10687;SDS011;5392;42.688;23.298;2022-11-20T14:42:03;5.63;;;1.95;;
10687;SDS011;5392;42.688;23.298;2022-11-20T14:44:59;1.27;;;0.45;;
10687;SDS011;5392;42.688;23.298;2022-11-20T14:47:29;4.68;;;1.95;;
10687;SDS011;5392;42.688;23.298;2022-11-20T14:49:57;0.50;;;0.30;;
10687;SDS011;5392;42.688;23.298;2022-11-20T14:52:30;3.05;;;0.43;;
10687;SDS011;5392;42.688;23.298;2022-11-20T14:54:58;1.75;;;0.30;;
10687;SDS011;5392;42.688;23.298;2022-11-20T14:57:27;0.52;;;0.30;;
10687;SDS011;5392;42.688;23.298;2022-11-20T15:02:46;0.38;;;0.30;;
10687;SDS011;5392;42.688;23.298;2022-11-20T15:05:18;3.40;;;0.43;;
10687;SDS011;5392;42.688;23.298;2022-11-20T15:07:48;0.93;;;0.30;;
10687;SDS011;5392;42.688;23.298;2022-11-20T15:10:23;1.00;;;0.40;;
10687;SDS011;5392;42.688;23.298;2022-11-20T15:12:52;1.90;;;1.23;;
10687;SDS011;5392;42.688;23.298;2022-11-20T15:15:51;6.07;;;3.85;;
10687;SDS011;5392;42.688;23.298;2022-11-20T15:18:22;3.47;;;1.73;;
10687;SDS011;5392;42.688;23.298;2022-11-20T15:20:50;2.28;;;1.67;;
10687;SDS011;5392;42.688;23.298;2022-11-20T15:23:18;3.78;;;1.08;;
10687;SDS011;5392;42.688;23.298;2022-11-20T15:25:46;2.67;;;0.82;;
10687;SDS011;5392;42.688;23.298;2022-11-20T15:28:21;3.75;;;2.20;;
10687;SDS011;5392;42.688;23.298;2022-11-20T15:30:55;1.95;;;0.50;;
10687;SDS011;5392;42.688;23.298;2022-11-20T15:33:22;1.02;;;0.75;;
10687;SDS011;5392;42.688;23.298;2022-11-20T15:35:49;4.65;;;0.98;;
10687;SDS011;5392;42.688;23.298;2022-11-20T15:38:16;3.85;;;1.90;;
10687;SDS011;5392;42.688;23.298;2022-11-20T15:40:42;2.15;;;1.48;;
10687;SDS011;5392;42.688;23.298;2022-11-20T15:43:09;5.82;;;4.20;;
10687;SDS011;5392;42.688;23.298;2022-11-20T15:48:19;6.47;;;2.70;;
10687;SDS011;5392;42.688;23.298;2022-11-20T15:50:51;3.40;;;1.13;;
10687;SDS011;5392;42.688;23.298;2022-11-20T15:53:23;2.22;;;0.63;;
10687;SDS011;5392;42.688;23.298;2022-11-20T15:55:49;1.00;;;0.40;;
10687;SDS011;5392;42.688;23.298;2022-11-20T15:58:16;0.50;;;0.40;;
10687;SDS011;5392;42.688;23.298;2022-11-20T16:00:43;3.20;;;2.90;;
10687;SDS011;5392;42.688;23.298;2022-11-20T16:03:11;1.95;;;0.40;;
10687;SDS011;5392;42.688;23.298;2022-11-20T16:05:38;2.63;;;0.40;;
10687;SDS011;5392;42.688;23.298;2022-11-20T16:08:05;1.40;;;0.30;;
10687;SDS011;5392;42.688;23.298;2022-11-20T16:10:37;0.90;;;0.30;;
10687;SDS011;5392;42.688;23.298;2022-11-20T16:13:03;1.30;;;0.30;;
10687;SDS011;5392;42.688;23.298;2022-11-20T16:15:53;1.65;;;0.30;;
10687;SDS011;5392;42.688;23.298;2022-11-20T16:18:24;0.82;;;0.30;;
10687;SDS011;5392;42.688;23.298;2022-11-20T16:20:52;0.45;;;0.30;;
10687;SDS011;5392;42.688;23.298;2022-11-20T16:23:20;2.45;;;0.40;;
10687;SDS011;5392;42.688;23.298;2022-11-20T16:25:47;0.70;;;0.50;;
10687;SDS011;5392;42.688;23.298;2022-11-20T16:28:14;0.93;;;0.40;;
10687;SDS011;5392;42.688;23.298;2022-11-20T16:30:44;3.80;;;0.40;;
10687;SDS011;5392;42.688;23.298;2022-11-20T16:33:15;2.15;;;0.40;;
10687;SDS011;5392;42.688;23.298;2022-11-20T16:35:43;0.88;;;0.30;;
10687;SDS011;5392;42.688;23.298;2022-11-20T16:38:10;0.95;;;0.30;;
10687;SDS011;5392;42.688;23.298;2022-11-20T16:40:36;1.30;;;0.38;;
10687;SDS011;5392;42.688;23.298;2022-11-20T16:43:10;1.48;;;0.60;;
10687;SDS011;5392;42.688;23.298;2022-11-20T16:45:40;3.20;;;0.40;;
10687;SDS011;5392;42.688;23.298;2022-11-20T16:48:11;0.50;;;0.50;;
10687;SDS011;5392;42.688;23.298;2022-11-20T16:50:48;1.35;;;0.50;;
10687;SDS011;5392;42.688;23.298;2022-11-20T16:53:17;2.30;;;0.57;;
10687;SDS011;5392;42.688;23.298;2022-11-20T16:55:46;2.97;;;0.70;;